• Join FlightAware (Why Join?)
  • Login
  • US Flag GB Flag 
17:05 EST


 

Airport Tracker/Info


-or-


 

Live Flight TrackerFlight Track Log ✈ UAL4115 ✈ 01-May-2013 ✈ KEWR - KSAV

Flight Track Log - Related Links

Times and Time Zones

All times are in EDT time to prevent confusion due to time zone crossing. See the UAL4115 flight status page for this flight to view local times or setup timezone preferences in your user account.

Time Position Orientation Groundspeed Altitude Reporting Facility
EDT Latitude Longitude Course Direction KTS MPH feet Rate Location/Type
14:18 40.6333 -74.2000 194° South 185 213 2,500  Level New York TRACON
14:19 40.5833 -74.2500 217° Southwest 257 296 4,200 2,160 Climbing New York TRACON
14:20 40.3847 -74.1923 159° South  Level FlightAware Approximate
14:20 40.5167 -74.3000 210° Southwest 264 304 6,900  Level New York TRACON
14:21 40.2806 -74.1565 194° South  Level FlightAware Approximate
14:21 40.4667 -74.2833 166° South 265 305 9,000  Level New York TRACON
14:22 40.1733 -74.1922 194° South  Level FlightAware Approximate
14:22 40.4333 -74.1833 114° Southeast 271 312 10,900  Level New York TRACON
14:23 40.0663 -74.2224 194° South  Level FlightAware Approximate
14:24 40.3011 -74.1319 163° South 312 359 12,800  Level New York Center
14:26 40.1219 -74.2025 197° South 346 398 15,400 1,320 Climbing Washington Center
14:27 40.0247 -74.2450 199° South 358 412 16,800 1,140 Climbing Washington Center
14:28 39.9381 -74.3169 212° Southwest 364 419 17,800 1,140 Climbing Washington Center
14:29 39.8556 -74.3942 216° Southwest 369 425 19,200 1,320 Climbing Washington Center
14:30 39.7772 -74.4844 222° Southwest 376 433 20,500 1,140 Climbing Washington Center
14:31 39.7008 -74.5856 226° Southwest 386 444 21,500 1,020 Climbing Washington Center
14:32 39.6164 -74.6972 226° Southwest 392 451 22,600 1,020 Climbing Washington Center
14:33 39.5339 -74.8058 225° Southwest 404 465 23,600 960 Climbing Washington Center
14:34 39.4533 -74.9117 225° Southwest 412 474 24,600 1,200 Climbing Washington Center
14:35 39.3744 -75.0169 226° Southwest 412 474 26,100 1,440 Climbing Washington Center
14:36 39.2917 -75.1089 221° Southwest 407 468 27,600 1,320 Climbing Washington Center
14:37 39.1897 -75.1606 201° Southwest 392 451 28,800 1,140 Climbing Washington Center
14:38 39.0856 -75.2067 199° South 392 451 29,900 1,020 Climbing Washington Center
14:39 38.9794 -75.2497 198° South 397 457 30,900 900 Climbing Washington Center
14:40 38.8733 -75.2931 198° South 402 463 31,800 900 Climbing Washington Center
14:41 38.7669 -75.3414 200° South 402 463 32,800 960 Climbing Washington Center
14:42 38.6544 -75.3817 196° South 408 470 33,800 540 Climbing Washington Center
14:43 38.5442 -75.4272 198° South 414 476 34,000 600 Climbing Washington Center
14:44 38.4317 -75.4778 199° South 425 489 35,000 960 Climbing Washington Center
14:45 38.3233 -75.5336 202° Southwest 425 489 35,900 480 Climbing Washington Center
14:46 38.2253 -75.6208 215° Southwest 417 480 36,000  Climbing Washington Center
14:47 38.1250 -75.7131 216° Southwest 436 502 36,000  Level Washington Center
14:48 38.0250 -75.8106 218° Southwest 454 522 36,000  Level Washington Center
14:49 37.9100 -75.8919 209° Southwest 459 528 36,000  Level Washington Center
14:50 37.8056 -75.9886 216° Southwest 466 536 36,000  Level Washington Center
14:51 37.7050 -76.0931 219° Southwest 473 544 36,000  Level Washington Center
14:52 37.5981 -76.1869 215° Southwest 473 544 36,000  Level Washington Center
14:53 37.4975 -76.2803 216° Southwest 468 539 36,000  Level Washington Center
14:54 37.3989 -76.3708 216° Southwest 457 526 36,000  Level Washington Center
14:55 37.3044 -76.4639 218° Southwest 450 518 36,000  Level Washington Center
14:56 37.2058 -76.5542 216° Southwest 445 512 36,000  Level Washington Center
14:57 37.1092 -76.6439 217° Southwest 445 512 36,000  Level Washington Center
14:58 37.0144 -76.7339 217° Southwest 440 506 36,000  Level Washington Center
14:59 36.9175 -76.8233 216° Southwest 440 506 36,000  Level Washington Center
15:00 36.8228 -76.9125 217° Southwest 440 506 36,000  Level Washington Center
15:01 36.7236 -77.0017 216° Southwest 445 512 36,000  Level Washington Center
15:02 36.6222 -77.1008 218° Southwest 450 518 36,000  Level Washington Center
15:03 36.5272 -77.1972 219° Southwest 450 518 36,000  Level Washington Center
15:04 36.4319 -77.2856 217° Southwest 445 512 36,000  Level Washington Center
15:05 36.3389 -77.3764 218° Southwest 440 506 36,000  Level Washington Center
15:06 36.2500 -77.4669 219° Southwest 428 493 36,000  Level Washington Center
15:07 36.1608 -77.5525 218° Southwest 417 480 36,000  Level Washington Center
15:08 36.0719 -77.6375 218° Southwest 417 480 36,000  Level Washington Center
15:09 35.9806 -77.7275 219° Southwest 423 487 36,000  Level Washington Center
15:10 35.8872 -77.8122 216° Southwest 423 487 36,000  Level Washington Center
15:11 35.7958 -77.9019 219° Southwest 423 487 36,000  Level Washington Center
15:12 35.7022 -77.9914 218° Southwest 428 493 36,000  Level Washington Center
15:13 35.6064 -78.0803 217° Southwest 428 493 36,000  Level Washington Center
15:14 35.5319 -78.1494 217° Southwest 428 493 36,000  Level Washington Center
15:15 35.4297 -78.2431 217° Southwest 428 493 36,000  Level Washington Center
15:16 35.3381 -78.3292 217° Southwest 428 493 36,000  Level Washington Center
15:17 35.2444 -78.4175 218° Southwest 428 493 36,000  Level Washington Center
15:18 35.1525 -78.5031 217° Southwest 428 493 36,000  Level Washington Center
15:19 35.0628 -78.5914 219° Southwest 428 493 36,000  Level Washington Center
15:20 34.9731 -78.6742 217° Southwest 428 493 36,000  Level Washington Center
15:21 34.8853 -78.7544 217° Southwest 422 486 36,000  Level Washington Center
15:23 34.7225 -78.8992 216° Southwest 390 449 36,000  Level Jacksonville Center
15:24 34.6333 -78.9817 217° Southwest 390 449 36,000  Level Jacksonville Center
15:25 34.5439 -79.0664 218° Southwest 402 463 36,000  Level Jacksonville Center
15:26 34.4569 -79.1506 219° Southwest 408 470 36,000 -60 Level Jacksonville Center
15:27 34.3736 -79.2297 218° Southwest 403 464 35,900 -60 Descending Jacksonville Center
15:28 34.2883 -79.3064 217° Southwest 393 452 35,900 -780 Level Jacksonville Center
15:29 34.2028 -79.3825 216° Southwest 393 452 34,400 -1,620 Descending Jacksonville Center
15:30 34.1092 -79.4642 216° Southwest 388 447 32,700 -1,620 Descending Jacksonville Center
15:31 34.0133 -79.5506 217° Southwest 404 465 31,200 -1,560 Descending Jacksonville Center
15:32 33.9194 -79.6342 216° Southwest 420 483 29,600 -1,560 Descending Jacksonville Center
15:33 33.8217 -79.7228 217° Southwest 431 496 28,100 -1,500 Descending Jacksonville Center
15:34 33.7236 -79.8111 217° Southwest 443 510 26,600 -1,500 Descending Jacksonville Center
15:35 33.6214 -79.9019 217° Southwest 455 524 25,100 -1,500 Descending Jacksonville Center
15:36 33.5214 -79.9925 217° Southwest 455 524 23,600 -1,500 Descending Jacksonville Center
15:37 33.4231 -80.0806 217° Southwest 450 518 22,100 -1,500 Descending Jacksonville Center
15:38 33.3269 -80.1656 216° Southwest 450 518 20,600 -1,080 Descending Jacksonville Center
15:39 33.2286 -80.2506 216° Southwest 444 511 20,000 -300 Descending Jacksonville Center
15:40 33.1322 -80.3353 216° Southwest 444 511 20,000  Level Jacksonville Center
15:41 33.0339 -80.4247 217° Southwest 444 511 20,000 -60 Level Jacksonville Center
15:42 32.9372 -80.5067 215° Southwest 449 517 19,900 -780 Descending Jacksonville Center
15:43 32.8508 -80.5781 215° Southwest 439 505 18,500 -1,440 Descending Jacksonville Center
15:44 32.7586 -80.6594 217° Southwest 432 497 17,100 -1,680 Descending Jacksonville Center
15:45 32.6681 -80.7383 216° Southwest 419 482 15,200 -2,160 Descending Jacksonville Center
15:46 32.5836 -80.8092 215° Southwest 398 458 12,800 -1,980 Descending Jacksonville Center
15:47 32.5094 -80.8750 217° Southwest 366 421 11,300 -1,500 Descending Jacksonville Center
15:48 32.4692 -80.9644 242° Southwest 299 344 9,900 -1,620 Descending Jacksonville Center
15:49 32.4514 -81.0389 254° West 283 326 8,100 -1,980 Descending Jacksonville Center
15:50 32.4233 -81.1206 248° West 261 300 6,000 -2,400 Descending Jacksonville Center
15:51 32.3764 -81.1978 234° Southwest 265 305 3,300 -2,040 Descending Jacksonville Center
15:52 32.3336 -81.2650 233° Southwest 270 311 2,000 -660 Descending Jacksonville Center
15:53 32.2842 -81.3247 226° Southwest 264 304 2,000  Level Jacksonville Center
15:54 32.2300 -81.3306 185° South 228 262 2,000 -60 Level Jacksonville Center
15:55 32.1675 -81.3367 185° South 228 262 1,900 -360 Descending Jacksonville Center
15:56 32.1294 -81.2981 139° Southeast 183 211 1,300 -720 Descending Jacksonville Center
15:57 32.1289 -81.2514 91° East 137 158 500 -840 Descending Jacksonville Center